Darstellungsparameter: Aktuell verwendete Einstellungen:
Skalierung der Graphiken ... ?
xyx+y,   Skalierungsfaktor:      Skalierung: Modus: x, Faktor: 1
Darstellungszeitraum ... ?
Vom - - bis: - -   Zeitraum: 10.08.2022 - 10.08.2022
Min/Max/Avg-Anzeige ... ?
Zeige MMA aktuell
Zeige MMA Monat
Zeige MMA alles
Zeige --A aktuell
Zeige --A Monat
Zeige --A alles
Keine MMA-Anzeige
MMA:
Keine MMA-Graphiken
MMA-Basis: 10.08.2022 - 10.08.2022
Quicknavigation für Darstellung... ?
Tage:      1T, 2T, 3T, 5T -1T -2T -3T -5T +1T +2T +3T +5T
Wochen: 1W, 2W, 3W -1W -2W -3W +1W +2W +3W
Monate: 1M, 3M, 6M -1M -3M -6M +1M +3M +6M
Jahre:    1J, 3J, 5J, 10J -1J -3J -5J -10J +1J +3J +5J +10J
Nutze für die Darstellung ... ?
Originaldaten oder Mittelwerte auf ...
Stundenbasis Tagesbasis Wochenbasis
Monatsbasis Jahresbasis      Datenbasis: Original-Daten
Darstellen als:
Statistik (Auto) Statistik J:M      Darstellung:
Zur Graphik,    zurück zur Übersicht aller Sensoren.
 
Tabellarische Datenbersicht: ?
 
Sensor: Nr:Datum:Temp:Feuchte:Taupunkt:
Aussen-T/F 1 10-08-2022 02:00:00 18.6 C 67 % 12.36 C
2 10-08-2022 02:05:00 18.5 C 67 % 12.26 C
3 10-08-2022 02:10:00 18.4 C 67 % 12.17 C
4 10-08-2022 02:15:00 18.3 C 67 % 12.07 C
5 10-08-2022 02:20:00 18.2 C 68 % 12.2 C
6 10-08-2022 02:25:00 18.2 C 68 % 12.2 C
7 10-08-2022 02:30:00 18.1 C 68 % 12.11 C
8 10-08-2022 02:35:00 17.9 C 68 % 11.91 C
9 10-08-2022 02:40:00 17.8 C 69 % 12.04 C
10 10-08-2022 02:45:00 17.8 C 69 % 12.04 C
11 10-08-2022 02:50:00 17.7 C 69 % 11.95 C
12 10-08-2022 02:55:00 17.7 C 69 % 11.95 C
13 10-08-2022 03:00:00 17.7 C 70 % 12.16 C
14 10-08-2022 03:05:00 17.6 C 70 % 12.07 C
15 10-08-2022 03:10:00 17.6 C 70 % 12.07 C
16 10-08-2022 03:15:00 17.6 C 70 % 12.07 C
17 10-08-2022 03:20:00 17.5 C 70 % 11.97 C
18 10-08-2022 03:25:00 17.4 C 70 % 11.88 C
19 10-08-2022 03:30:00 17.4 C 70 % 11.88 C
20 10-08-2022 03:35:00 17.3 C 70 % 11.78 C
21 10-08-2022 03:40:00 17.3 C 70 % 11.78 C
22 10-08-2022 03:45:00 17.3 C 70 % 11.78 C
23 10-08-2022 03:50:00 17.2 C 71 % 11.9 C
24 10-08-2022 03:55:00 17.1 C 71 % 11.8 C
25 10-08-2022 04:00:00 17 C 71 % 11.71 C
Sensor: Nr:Datum:Temp:Feuchte:Taupunkt:
Aussen-T/F 26 10-08-2022 04:05:00 16.9 C 71 % 11.61 C
27 10-08-2022 04:10:00 16.9 C 72 % 11.82 C
28 10-08-2022 04:15:00 16.9 C 72 % 11.82 C
29 10-08-2022 04:20:00 16.8 C 72 % 11.73 C
30 10-08-2022 04:25:00 16.7 C 72 % 11.63 C
31 10-08-2022 04:30:00 16.6 C 72 % 11.54 C
32 10-08-2022 04:35:00 16.5 C 73 % 11.65 C
33 10-08-2022 04:40:00 16.4 C 73 % 11.55 C
34 10-08-2022 04:45:00 16.3 C 73 % 11.46 C
35 10-08-2022 04:50:00 16.2 C 73 % 11.36 C
36 10-08-2022 04:55:00 16.1 C 74 % 11.47 C
37 10-08-2022 05:00:00 16 C 74 % 11.37 C
38 10-08-2022 05:05:00 15.9 C 75 % 11.48 C
39 10-08-2022 05:10:00 15.8 C 75 % 11.38 C
40 10-08-2022 05:15:00 15.8 C 75 % 11.38 C
41 10-08-2022 05:20:00 15.8 C 75 % 11.38 C
42 10-08-2022 05:25:00 15.7 C 75 % 11.28 C
43 10-08-2022 05:30:00 15.7 C 75 % 11.28 C
44 10-08-2022 05:35:00 15.6 C 75 % 11.19 C
45 10-08-2022 05:40:00 15.5 C 75 % 11.09 C
46 10-08-2022 05:45:00 15.4 C 75 % 11 C
47 10-08-2022 05:50:00 15.3 C 76 % 11.1 C
48 10-08-2022 05:55:00 15.3 C 76 % 11.1 C
49 10-08-2022 06:00:00 15.2 C 76 % 11 C
50 10-08-2022 06:05:00 15.1 C 77 % 11.1 C
Sensor: Nr:Datum:Temp:Feuchte:Taupunkt:
Aussen-T/F 51 10-08-2022 06:10:00 15 C 77 % 11 C
52 10-08-2022 06:15:00 14.9 C 77 % 10.91 C
53 10-08-2022 06:20:00 14.8 C 78 % 11 C
54 10-08-2022 06:25:00 14.8 C 78 % 11 C
55 10-08-2022 06:30:00 14.8 C 78 % 11 C
56 10-08-2022 06:35:00 14.7 C 79 % 11.1 C
57 10-08-2022 06:40:00 14.7 C 79 % 11.1 C
58 10-08-2022 06:45:00 14.7 C 79 % 11.1 C
59 10-08-2022 06:50:00 14.7 C 80 % 11.29 C
60 10-08-2022 06:55:00 14.7 C 81 % 11.48 C
61 10-08-2022 07:00:00 14.7 C 80 % 11.29 C
62 10-08-2022 07:05:00 14.6 C 80 % 11.19 C
63 10-08-2022 07:10:00 14.6 C 81 % 11.38 C
64 10-08-2022 07:15:00 14.5 C 81 % 11.28 C
65 10-08-2022 07:20:00 14.5 C 82 % 11.47 C
66 10-08-2022 07:25:00 14.5 C 82 % 11.47 C
67 10-08-2022 07:30:00 14.5 C 82 % 11.47 C
68 10-08-2022 07:35:00 14.5 C 83 % 11.65 C
69 10-08-2022 07:40:00 14.5 C 83 % 11.65 C
70 10-08-2022 07:45:00 14.5 C 84 % 11.83 C
71 10-08-2022 07:50:00 14.5 C 84 % 11.83 C
72 10-08-2022 07:55:00 14.5 C 84 % 11.83 C
73 10-08-2022 08:00:00 14.6 C 84 % 11.93 C
74 10-08-2022 08:05:00 14.6 C 84 % 11.93 C
75 10-08-2022 08:10:00 14.6 C 85 % 12.11 C
Sensor: Nr:Datum:Temp:Feuchte:Taupunkt:
Aussen-T/F 76 10-08-2022 08:15:00 14.7 C 85 % 12.21 C
77 10-08-2022 08:20:00 14.7 C 85 % 12.21 C
78 10-08-2022 08:25:00 14.8 C 85 % 12.3 C
79 10-08-2022 08:30:00 14.8 C 86 % 12.48 C
80 10-08-2022 08:35:00 14.9 C 86 % 12.58 C
81 10-08-2022 08:40:00 15 C 86 % 12.68 C
82 10-08-2022 08:45:00 15.1 C 86 % 12.78 C
83 10-08-2022 08:50:00 15.2 C 86 % 12.88 C
84 10-08-2022 08:55:00 15.3 C 86 % 12.97 C
85 10-08-2022 09:00:00 15.4 C 87 % 13.25 C
86 10-08-2022 09:05:00 15.6 C 86 % 13.27 C
87 10-08-2022 09:10:00 15.7 C 86 % 13.37 C
88 10-08-2022 09:15:00 15.8 C 86 % 13.46 C
89 10-08-2022 09:20:00 16 C 86 % 13.66 C
90 10-08-2022 09:25:00 16.2 C 84 % 13.5 C
91 10-08-2022 09:30:00 16.4 C 84 % 13.69 C
92 10-08-2022 09:35:00 16.7 C 83 % 13.8 C
93 10-08-2022 09:40:00 16.9 C 82 % 13.81 C
94 10-08-2022 09:45:00 17.2 C 81 % 13.91 C
95 10-08-2022 09:50:00 17.6 C 80 % 14.11 C
96 10-08-2022 09:55:00 17.9 C 77 % 13.81 C
97 10-08-2022 10:00:00 18.4 C 77 % 14.3 C
98 10-08-2022 10:05:00 18.7 C 74 % 13.97 C
99 10-08-2022 10:10:00 18.9 C 73 % 13.96 C
100 10-08-2022 10:15:00 19.3 C 72 % 14.13 C
Sensor: Nr:Datum:Temp:Feuchte:Taupunkt:
Aussen-T/F 101 10-08-2022 10:20:00 19.7 C 72 % 14.51 C
102 10-08-2022 10:25:00 19.9 C 69 % 14.05 C
103 10-08-2022 10:30:00 20.4 C 66 % 13.84 C
104 10-08-2022 10:35:00 20.7 C 67 % 14.36 C
105 10-08-2022 10:40:00 20.9 C 66 % 14.31 C
106 10-08-2022 10:45:00 21.3 C 62 % 13.73 C
107 10-08-2022 10:50:00 21.9 C 62 % 14.29 C
108 10-08-2022 10:55:00 22.4 C 58 % 13.73 C
109 10-08-2022 11:00:00 22.9 C 59 % 14.47 C
110 10-08-2022 11:05:00 23.3 C 56 % 14.03 C
111 10-08-2022 11:10:00 23.8 C 57 % 14.77 C
112 10-08-2022 11:15:00 24.2 C 54 % 14.31 C
113 10-08-2022 11:20:00 24.6 C 52 % 14.09 C
114 10-08-2022 11:25:00 25 C 49 % 13.55 C
115 10-08-2022 11:30:00 25.4 C 45 % 12.61 C
116 10-08-2022 11:35:00 25.8 C 45 % 12.97 C
117 10-08-2022 11:40:00 26.1 C 42 % 12.19 C
118 10-08-2022 11:45:00 26.3 C 43 % 12.73 C
119 10-08-2022 11:50:00 26.6 C 40 % 11.9 C
120 10-08-2022 11:55:00 26.8 C 40 % 12.07 C
121 10-08-2022 12:00:00 27.1 C 41 % 12.72 C
122 10-08-2022 12:05:00 27.3 C 38 % 11.74 C
123 10-08-2022 12:10:00 27.6 C 39 % 12.4 C
124 10-08-2022 12:15:00 27.8 C 37 % 11.78 C
125 10-08-2022 12:20:00 28.1 C 37 % 12.04 C
Sensor: Nr:Datum:Temp:Feuchte:Taupunkt:
Aussen-T/F 126 10-08-2022 12:25:00 28.4 C 37 % 12.31 C
127 10-08-2022 12:30:00 28.6 C 35 % 11.64 C
128 10-08-2022 12:35:00 28.6 C 36 % 12.07 C
129 10-08-2022 12:40:00 28.6 C 35 % 11.64 C
130 10-08-2022 12:45:00 28.6 C 35 % 11.64 C
131 10-08-2022 12:50:00 28.6 C 34 % 11.21 C
132 10-08-2022 12:55:00 28.6 C 35 % 11.64 C
133 10-08-2022 13:00:00 28.6 C 35 % 11.64 C
134 10-08-2022 13:05:00 28.8 C 35 % 11.82 C
135 10-08-2022 13:10:00 29.1 C 34 % 11.64 C
136 10-08-2022 13:15:00 29.4 C 35 % 12.34 C
137 10-08-2022 13:20:00 29.7 C 33 % 11.71 C
138 10-08-2022 13:25:00 29.7 C 32 % 11.25 C
139 10-08-2022 13:30:00 29.6 C 32 % 11.16 C
140 10-08-2022 13:35:00 29.6 C 32 % 11.16 C
141 10-08-2022 13:40:00 29.8 C 31 % 10.86 C
142 10-08-2022 13:45:00 29.9 C 31 % 10.94 C
143 10-08-2022 13:50:00 29.9 C 30 % 10.45 C
144 10-08-2022 13:55:00 29.7 C 30 % 10.28 C
145 10-08-2022 14:00:00 29.7 C 32 % 11.25 C
146 10-08-2022 14:05:00 29.8 C 30 % 10.37 C
147 10-08-2022 14:10:00 29.9 C 30 % 10.45 C
148 10-08-2022 14:15:00 29.9 C 30 % 10.45 C
149 10-08-2022 14:20:00 30.2 C 31 % 11.2 C
150 10-08-2022 14:25:00 30.4 C 29 % 10.37 C
Sensor: Nr:Datum:Temp:Feuchte:Taupunkt:
Aussen-T/F 151 10-08-2022 14:30:00 30.3 C 29 % 10.29 C
152 10-08-2022 14:35:00 30.3 C 30 % 10.79 C
153 10-08-2022 14:40:00 30.3 C 30 % 10.79 C
154 10-08-2022 14:45:00 30.4 C 29 % 10.37 C
155 10-08-2022 14:50:00 30.5 C 29 % 10.46 C
156 10-08-2022 14:55:00 30.7 C 29 % 10.63 C
157 10-08-2022 15:00:00 30.9 C 29 % 10.8 C
158 10-08-2022 15:05:00 30.7 C 29 % 10.63 C
159 10-08-2022 15:10:00 30.6 C 29 % 10.54 C
160 10-08-2022 15:15:00 30.7 C 30 % 11.14 C
161 10-08-2022 15:20:00 31.1 C 28 % 10.44 C
162 10-08-2022 15:25:00 31.2 C 27 % 9.99 C
163 10-08-2022 15:30:00 31.3 C 27 % 10.07 C
164 10-08-2022 15:35:00 31.5 C 27 % 10.24 C
165 10-08-2022 15:40:00 31.5 C 27 % 10.24 C
166 10-08-2022 15:45:00 31.6 C 27 % 10.33 C
167 10-08-2022 15:50:00 31.5 C 27 % 10.24 C
168 10-08-2022 15:55:00 31.6 C 27 % 10.33 C
169 10-08-2022 16:00:00 31.2 C 27 % 9.99 C
170 10-08-2022 16:05:00 31 C 27 % 9.82 C
171 10-08-2022 16:10:00 31 C 27 % 9.82 C
172 10-08-2022 16:15:00 31.1 C 27 % 9.9 C
173 10-08-2022 16:20:00 31.3 C 27 % 10.07 C
174 10-08-2022 16:25:00 31.4 C 26 % 9.59 C
175 10-08-2022 16:30:00 31.4 C 27 % 10.16 C
Sensor: Nr:Datum:Temp:Feuchte:Taupunkt:
Aussen-T/F 176 10-08-2022 16:35:00 31.6 C 26 % 9.76 C
177 10-08-2022 16:40:00 31.7 C 27 % 10.41 C
178 10-08-2022 16:45:00 31.7 C 26 % 9.85 C
179 10-08-2022 16:50:00 31.9 C 26 % 10.02 C
180 10-08-2022 16:55:00 32.2 C 26 % 10.27 C
181 10-08-2022 17:00:00 32.3 C 26 % 10.35 C
182 10-08-2022 17:05:00 32.4 C 25 % 9.85 C
183 10-08-2022 17:10:00 32.4 C 25 % 9.85 C
184 10-08-2022 17:15:00 32.4 C 24 % 9.24 C
185 10-08-2022 17:20:00 32.4 C 24 % 9.24 C
186 10-08-2022 17:25:00 32.3 C 24 % 9.16 C
187 10-08-2022 17:30:00 32 C 23 % 8.28 C
188 10-08-2022 17:35:00 31.6 C 24 % 8.58 C
189 10-08-2022 17:40:00 31.6 C 24 % 8.58 C
190 10-08-2022 17:45:00 31.6 C 24 % 8.58 C
191 10-08-2022 17:50:00 31.5 C 24 % 8.49 C
192 10-08-2022 17:55:00 31.7 C 25 % 9.26 C
193 10-08-2022 18:00:00 31.6 C 24 % 8.58 C
194 10-08-2022 18:05:00 31.6 C 24 % 8.58 C
195 10-08-2022 18:10:00 31.7 C 24 % 8.66 C
196 10-08-2022 18:15:00 31.7 C 24 % 8.66 C
197 10-08-2022 18:20:00 31.8 C 24 % 8.74 C
198 10-08-2022 18:25:00 31.8 C 24 % 8.74 C
199 10-08-2022 18:30:00 31.9 C 24 % 8.83 C
200 10-08-2022 18:35:00 31.7 C 25 % 9.26 C
Sensor: Nr:Datum:Temp:Feuchte:Taupunkt:
Aussen-T/F 201 10-08-2022 18:40:00 31.5 C 25 % 9.1 C
202 10-08-2022 18:45:00 31.2 C 25 % 8.84 C
203 10-08-2022 18:50:00 31.1 C 25 % 8.76 C
204 10-08-2022 18:55:00 30.9 C 25 % 8.59 C
205 10-08-2022 19:00:00 30.7 C 25 % 8.42 C
206 10-08-2022 19:05:00 30.5 C 26 % 8.83 C
207 10-08-2022 19:10:00 30.4 C 26 % 8.75 C
208 10-08-2022 19:15:00 30.3 C 27 % 9.22 C
209 10-08-2022 19:20:00 30.2 C 26 % 8.58 C
210 10-08-2022 19:25:00 30.2 C 26 % 8.58 C
211 10-08-2022 19:30:00 30.2 C 27 % 9.14 C
212 10-08-2022 19:35:00 30.1 C 27 % 9.05 C
213 10-08-2022 19:40:00 30 C 27 % 8.97 C
214 10-08-2022 19:45:00 29.8 C 27 % 8.8 C
215 10-08-2022 19:50:00 29.7 C 27 % 8.71 C
216 10-08-2022 19:55:00 29.7 C 27 % 8.71 C
217 10-08-2022 20:00:00 29.6 C 27 % 8.63 C
218 10-08-2022 20:05:00 29.5 C 30 % 10.11 C
219 10-08-2022 20:10:00 29.3 C 30 % 9.94 C
220 10-08-2022 20:15:00 29.1 C 32 % 10.73 C
221 10-08-2022 20:20:00 28.9 C 37 % 12.75 C
222 10-08-2022 20:25:00 28.6 C 38 % 12.89 C
223 10-08-2022 20:30:00 28.3 C 38 % 12.63 C
224 10-08-2022 20:35:00 27.9 C 39 % 12.67 C
225 10-08-2022 20:40:00 27.4 C 39 % 12.22 C
Sensor: Nr:Datum:Temp:Feuchte:Taupunkt:
Aussen-T/F 226 10-08-2022 20:45:00 26.8 C 40 % 12.07 C
227 10-08-2022 20:50:00 26.3 C 42 % 12.37 C
228 10-08-2022 20:55:00 25.8 C 42 % 11.92 C
229 10-08-2022 21:00:00 25.3 C 43 % 11.83 C
230 10-08-2022 21:05:00 24.8 C 46 % 12.4 C
231 10-08-2022 21:10:00 24.3 C 43 % 10.93 C
232 10-08-2022 21:15:00 23.9 C 44 % 10.91 C
233 10-08-2022 21:20:00 23.6 C 45 % 10.98 C
234 10-08-2022 21:25:00 23.2 C 46 % 10.95 C
235 10-08-2022 21:30:00 22.9 C 46 % 10.67 C
236 10-08-2022 21:35:00 22.6 C 47 % 10.72 C
237 10-08-2022 21:40:00 22.3 C 49 % 11.08 C
238 10-08-2022 21:45:00 22.1 C 49 % 10.89 C
239 10-08-2022 21:50:00 21.9 C 50 % 11.01 C
240 10-08-2022 21:55:00 21.7 C 48 % 10.22 C
241 10-08-2022 22:00:00 21.6 C 52 % 11.33 C
242 10-08-2022 22:05:00 21.5 C 52 % 11.24 C
243 10-08-2022 22:10:00 21.3 C 52 % 11.05 C
244 10-08-2022 22:15:00 21.2 C 52 % 10.96 C
245 10-08-2022 22:20:00 21.1 C 53 % 11.15 C
246 10-08-2022 22:25:00 20.9 C 52 % 10.68 C
247 10-08-2022 22:30:00 20.8 C 53 % 10.88 C
248 10-08-2022 22:35:00 20.7 C 54 % 11.07 C
249 10-08-2022 22:40:00 20.6 C 54 % 10.97 C
250 10-08-2022 22:45:00 20.6 C 54 % 10.97 C
Sensor: Nr:Datum:Temp:Feuchte:Taupunkt:
Aussen-T/F 251 10-08-2022 22:50:00 20.4 C 54 % 10.79 C
252 10-08-2022 22:55:00 20.3 C 54 % 10.69 C
253 10-08-2022 23:00:00 20.2 C 54 % 10.6 C
254 10-08-2022 23:05:00 20.2 C 55 % 10.88 C
255 10-08-2022 23:10:00 20.1 C 55 % 10.78 C
256 10-08-2022 23:15:00 20.1 C 54 % 10.51 C
257 10-08-2022 23:20:00 19.9 C 56 % 10.87 C
258 10-08-2022 23:25:00 19.9 C 55 % 10.6 C
259 10-08-2022 23:30:00 19.8 C 55 % 10.51 C
260 10-08-2022 23:35:00 19.7 C 56 % 10.68 C
261 10-08-2022 23:40:00 19.7 C 56 % 10.68 C
262 10-08-2022 23:45:00 19.7 C 57 % 10.95 C
263 10-08-2022 23:50:00 19.6 C 57 % 10.86 C
264 10-08-2022 23:55:00 19.6 C 57 % 10.86 C

Legende:
   Min
   Max


Maximal/Minimal-Werte vom 10.08.2022 - 10.08.2022

Sensor Min Max Avg
Temp
(Aussen-T/F)
14.5 °C
10-08-2022  07:15:00
32.4 °C
10-08-2022  17:05:00
23.18 °C
Feuchte
(Aussen-T/F)
23 %
10-08-2022  17:30:00
87 %
10-08-2022  09:00:00
52.33 %
Taupunkt
(Aussen-T/F)
8.28 C
10-08-2022  17:30:00
14.77 C
10-08-2022  11:10:00
11.24 C

Die Daten stammen von einer Davis Vantage Pro 2 Wetter-Station und werden unter Linux mit der Software wview2wettercgi und aufbereitet. Alle Angaben erfolgen ohne Gewähr für ihre Vollständigkeit oder Richtigkeit.
Kontakt: Rainer Krienke krienke@uni-koblenz.de . Meine Webseiten an der Uni Koblenz oder privat.
Version: $Revision: 0.78 $